Time;durP1;ratioP1;P1;durP2;ratioP2;P2;SDS_P1;SDS_P2;PMS_P1;PMS_P2;Temp;Humidity;BMP_temperature;BMP_pressure;BME280_temperature;BME280_humidity;BME280_pressure;Samples;Min_cycle;Max_cycle;Signal;HPM_P1;HPM_P2
2022/05/24 05:00:35;;;;;;;3.20;1.23;;;17.60;97.20;;;;;;1726871;28;20707;-71
2022/05/24 05:01:26;;;;;;;1.63;1.27;;;17.60;97.20;;;;;;1726847;28;20247;-71
2022/05/24 05:02:19;;;;;;;2.03;1.10;;;17.70;97.20;;;;;;1726734;28;20197;-71
2022/05/24 05:03:13;;;;;;;1.40;1.30;;;17.70;97.20;;;;;;1727562;28;20211;-71
2022/05/24 05:04:05;;;;;;;1.50;1.00;;;17.70;97.20;;;;;;1727496;28;20204;-71
2022/05/24 05:04:56;;;;;;;1.00;0.90;;;17.70;97.20;;;;;;1727469;28;20257;-71
2022/05/24 05:05:49;;;;;;;2.28;1.35;;;17.70;97.20;;;;;;1727476;28;20224;-71
2022/05/24 05:06:43;;;;;;;1.17;1.08;;;17.70;97.20;;;;;;1727476;28;20200;-71
2022/05/24 05:07:34;;;;;;;2.25;1.30;;;17.70;97.20;;;;;;1727558;28;20211;-71
2022/05/24 05:08:25;;;;;;;1.60;1.00;;;17.70;97.20;;;;;;1726829;28;20205;-71
2022/05/24 05:09:17;;;;;;;1.73;1.40;;;17.80;97.20;;;;;;1727055;28;20201;-72
2022/05/24 05:10:10;;;;;;;1.38;1.17;;;17.80;97.20;;;;;;1727592;28;20656;-71
2022/05/24 05:11:01;;;;;;;2.72;1.30;;;17.80;97.20;;;;;;1726504;28;20220;-71
2022/05/24 05:11:52;;;;;;;1.33;1.23;;;17.80;97.20;;;;;;1723645;28;20189;-71
2022/05/24 05:12:45;;;;;;;1.30;1.20;;;17.80;97.20;;;;;;1727451;28;20587;-71
2022/05/24 05:13:37;;;;;;;1.65;1.38;;;17.80;97.20;;;;;;1727355;28;20204;-71
2022/05/24 05:14:28;;;;;;;10.18;1.35;;;17.80;97.20;;;;;;1727479;28;20215;-71
2022/05/24 05:15:20;;;;;;;1.52;1.10;;;17.80;97.20;;;;;;1727521;28;20235;-71
2022/05/24 05:18:05;;;;;;;2.35;1.15;;;17.80;97.20;;;;;;1724169;28;20663;-72
2022/05/24 05:20:46;;;;;;;1.85;1.45;;;17.80;97.20;;;;;;1727004;28;20203;-71
2022/05/24 05:21:39;;;;;;;2.00;1.10;;;17.80;97.20;;;;;;1725128;28;20874;-71
2022/05/24 05:22:30;;;;;;;1.75;1.17;;;17.80;97.20;;;;;;1724384;28;20554;-71
2022/05/24 05:23:21;;;;;;;1.60;1.20;;;17.80;97.20;;;;;;1726687;28;20200;-72
2022/05/24 05:24:13;;;;;;;3.43;1.30;;;17.80;97.20;;;;;;1722810;28;20203;-71
2022/05/24 05:25:05;;;;;;;2.15;1.30;;;17.80;97.20;;;;;;1723598;28;20211;-71
2022/05/24 05:25:56;;;;;;;3.28;1.20;;;17.90;97.20;;;;;;1727176;28;20227;-71
2022/05/24 05:26:47;;;;;;;1.40;1.20;;;17.90;97.20;;;;;;1724555;28;20232;-71
2022/05/24 05:27:39;;;;;;;2.00;1.20;;;17.90;97.20;;;;;;1723815;28;20205;-71
2022/05/24 05:28:30;;;;;;;1.40;1.30;;;17.90;97.20;;;;;;1727316;28;20487;-71
2022/05/24 05:31:40;;;;;;;3.38;1.50;;;18.00;97.20;;;;;;1724950;28;20223;-72
2022/05/24 05:32:31;;;;;;;1.90;1.30;;;18.00;97.20;;;;;;1720517;28;20259;-71
2022/05/24 05:33:25;;;;;;;1.30;1.20;;;18.10;97.20;;;;;;1727455;28;20219;-71
2022/05/24 05:34:16;;;;;;;3.55;1.52;;;18.10;97.20;;;;;;1727277;28;20215;-70
2022/05/24 05:35:08;;;;;;;2.13;1.10;;;18.10;97.20;;;;;;1727281;28;20279;-71
2022/05/24 05:36:02;;;;;;;1.30;1.10;;;18.20;97.20;;;;;;1727311;28;20680;-71
2022/05/24 05:36:54;;;;;;;2.15;1.30;;;18.20;97.20;;;;;;1727283;28;20225;-71
2022/05/24 05:37:45;;;;;;;1.73;1.35;;;18.20;97.20;;;;;;1727414;28;20208;-71
2022/05/24 05:38:37;;;;;;;1.83;1.30;;;18.30;97.20;;;;;;1727467;28;20277;-71
2022/05/24 05:39:29;;;;;;;2.10;1.60;;;18.30;97.20;;;;;;1727056;28;20215;-71
2022/05/24 05:40:21;;;;;;;2.80;1.40;;;18.30;97.20;;;;;;1726749;28;20648;-71
2022/05/24 05:41:12;;;;;;;2.10;1.30;;;18.40;97.20;;;;;;1726705;28;20240;-71
2022/05/24 05:42:05;;;;;;;1.50;1.30;;;18.40;97.20;;;;;;1727128;28;20220;-72
2022/05/24 05:42:56;;;;;;;2.00;1.10;;;18.50;97.20;;;;;;1726875;28;20635;-71
2022/05/24 05:43:48;;;;;;;2.20;1.57;;;18.50;97.20;;;;;;1726767;28;20577;-72
2022/05/24 05:44:39;;;;;;;1.65;1.55;;;18.50;97.20;;;;;;1727458;28;20679;-71
2022/05/24 05:45:30;;;;;;;5.23;1.17;;;18.60;97.20;;;;;;1727368;28;20597;-71
2022/05/24 05:46:21;;;;;;;2.20;1.23;;;18.60;97.20;;;;;;1727326;28;20208;-71
2022/05/24 05:47:13;;;;;;;1.47;0.93;;;18.70;97.20;;;;;;1727341;28;20238;-71
2022/05/24 05:48:04;;;;;;;3.65;1.25;;;18.70;97.20;;;;;;1727427;28;20235;-72
2022/05/24 05:48:57;;;;;;;1.50;1.40;;;18.70;97.20;;;;;;1727407;28;20295;-72
2022/05/24 05:49:48;;;;;;;3.30;1.30;;;18.80;97.20;;;;;;1727149;28;21230;-71
2022/05/24 05:50:40;;;;;;;1.63;1.27;;;18.80;97.20;;;;;;1722807;28;20567;-71
2022/05/24 05:51:31;;;;;;;1.27;1.17;;;18.80;97.20;;;;;;1720570;28;20243;-72
2022/05/24 05:52:22;;;;;;;1.40;1.30;;;18.80;97.20;;;;;;1720648;28;20212;-71
2022/05/24 05:53:13;;;;;;;2.42;1.40;;;18.80;97.20;;;;;;1720566;28;20233;-72
2022/05/24 05:54:05;;;;;;;1.90;1.20;;;18.90;97.20;;;;;;1720577;28;20220;-72
2022/05/24 05:54:55;;;;;;;1.10;1.00;;;18.90;97.20;;;;;;1720640;28;20202;-72
2022/05/24 05:55:47;;;;;;;1.30;1.20;;;18.90;97.20;;;;;;1720611;28;20311;-71
2022/05/24 05:56:40;;;;;;;1.80;1.45;;;18.90;97.20;;;;;;1720567;28;20201;-71
2022/05/24 05:57:33;;;;;;;2.15;1.50;;;19.00;97.20;;;;;;1720472;28;20209;-72
2022/05/24 05:58:24;;;;;;;1.95;1.25;;;19.00;97.20;;;;;;1720615;28;20667;-72
2022/05/24 05:59:16;;;;;;;2.40;1.17;;;19.00;97.20;;;;;;1720580;28;20559;-71
2022/05/24 06:00:08;;;;;;;1.30;1.20;;;19.00;97.20;;;;;;1720688;28;20449;-70
2022/05/24 06:01:01;;;;;;;1.58;1.20;;;18.90;97.20;;;;;;1726766;28;20224;-71
2022/05/24 06:01:56;;;;;;;1.50;1.40;;;18.90;97.20;;;;;;1727343;28;20227;-71
2022/05/24 06:02:47;;;;;;;2.53;1.58;;;18.90;97.20;;;;;;1727494;28;20586;-72
2022/05/24 06:03:39;;;;;;;2.33;1.30;;;18.80;97.20;;;;;;1728695;28;20287;-72
2022/05/24 06:04:31;;;;;;;2.50;1.20;;;18.80;97.20;;;;;;1728606;28;20212;-72
2022/05/24 06:05:23;;;;;;;1.52;1.42;;;18.80;97.20;;;;;;1728655;28;20667;-72
2022/05/24 06:06:18;;;;;;;1.80;1.45;;;18.80;97.20;;;;;;1728585;28;20683;-72
2022/05/24 06:07:10;;;;;;;1.95;1.60;;;18.80;97.20;;;;;;1728704;28;20606;-71
2022/05/24 06:08:02;;;;;;;2.53;1.40;;;18.80;97.20;;;;;;1728654;28;20208;-72
2022/05/24 06:08:53;;;;;;;1.95;1.40;;;18.90;97.20;;;;;;1725556;28;20197;-72
2022/05/24 06:09:44;;;;;;;2.95;1.60;;;19.00;97.20;;;;;;1721651;28;20201;-72
2022/05/24 06:10:37;;;;;;;3.17;1.40;;;19.00;97.20;;;;;;1721644;28;20221;-70
2022/05/24 06:11:28;;;;;;;2.58;1.33;;;19.10;97.20;;;;;;1728552;28;20201;-72
2022/05/24 06:12:19;;;;;;;3.80;1.30;;;19.20;97.20;;;;;;1728583;28;20250;-72
2022/05/24 06:13:10;;;;;;;1.90;1.20;;;19.30;97.20;;;;;;1728600;28;20204;-72
2022/05/24 06:14:02;;;;;;;3.10;1.50;;;19.40;97.20;;;;;;1728608;28;20196;-72
2022/05/24 06:14:53;;;;;;;1.83;1.30;;;19.50;97.20;;;;;;1728566;28;20675;-71
2022/05/24 06:15:47;;;;;;;1.77;1.50;;;19.50;97.20;;;;;;1728688;28;20553;-71
2022/05/24 06:16:38;;;;;;;1.23;0.90;;;19.50;97.20;;;;;;1728500;28;20239;-71
2022/05/24 06:17:29;;;;;;;3.40;1.58;;;19.60;97.20;;;;;;1728541;28;20287;-72
2022/05/24 06:18:20;;;;;;;3.55;1.58;;;19.60;97.20;;;;;;1728643;28;20204;-71
2022/05/24 06:21:00;;;;;;;1.60;1.20;;;19.60;97.20;;;;;;1721483;28;20970;-71
2022/05/24 06:21:51;;;;;;;2.00;1.58;;;19.60;97.20;;;;;;1721880;28;20197;-70
2022/05/24 06:22:43;;;;;;;1.57;1.40;;;19.60;97.20;;;;;;1721887;28;20207;-71
2022/05/24 06:23:33;;;;;;;1.30;1.20;;;19.70;97.20;;;;;;1721841;28;20208;-71
2022/05/24 06:24:25;;;;;;;1.93;1.10;;;19.70;97.20;;;;;;1721937;28;20208;-72
2022/05/24 06:25:16;;;;;;;1.50;1.30;;;19.80;97.20;;;;;;1721853;28;20205;-72
2022/05/24 06:26:08;;;;;;;3.20;1.50;;;19.80;97.20;;;;;;1721760;28;20205;-72
2022/05/24 06:26:59;;;;;;;1.63;1.42;;;19.80;97.20;;;;;;1721745;28;20443;-72
2022/05/24 06:27:51;;;;;;;1.43;1.23;;;19.80;97.20;;;;;;1721866;28;20691;-71
2022/05/24 06:28:42;;;;;;;1.85;1.20;;;19.90;97.20;;;;;;1721828;28;20212;-72
2022/05/24 06:29:36;;;;;;;4.40;2.00;;;19.90;97.20;;;;;;1722397;28;20280;-72
2022/05/24 06:30:27;;;;;;;1.60;1.40;;;19.80;97.20;;;;;;1721678;28;20340;-72
2022/05/24 06:31:20;;;;;;;2.25;1.20;;;19.80;97.20;;;;;;1721696;28;20205;-71
2022/05/24 06:32:11;;;;;;;2.35;1.30;;;19.80;97.20;;;;;;1721822;28;20244;-72
2022/05/24 06:33:03;;;;;;;2.60;1.50;;;19.90;97.20;;;;;;1721738;28;20225;-71
2022/05/24 06:33:54;;;;;;;2.53;1.10;;;19.90;97.20;;;;;;1721765;28;20702;-71
2022/05/24 06:34:48;;;;;;;1.27;1.17;;;19.90;97.20;;;;;;1721787;28;20205;-72
2022/05/24 06:35:39;;;;;;;5.75;1.58;;;20.00;97.20;;;;;;1721711;28;20224;-72
2022/05/24 06:36:32;;;;;;;1.80;1.40;;;20.10;97.20;;;;;;1721682;28;20208;-71
2022/05/24 06:37:24;;;;;;;2.75;1.25;;;20.10;97.20;;;;;;1721577;28;20260;-72
2022/05/24 06:38:16;;;;;;;3.60;1.48;;;20.20;97.20;;;;;;1721609;28;20216;-72
2022/05/24 06:39:07;;;;;;;7.65;1.83;;;20.20;97.20;;;;;;1722537;28;20208;-72
2022/05/24 06:41:46;;;;;;;3.03;1.38;;;20.20;97.20;;;;;;1728160;28;20230;-72
2022/05/24 06:42:36;;;;;;;1.42;1.33;;;20.30;97.20;;;;;;1728453;28;20207;-72
2022/05/24 06:43:28;;;;;;;2.60;1.27;;;20.30;97.20;;;;;;1728368;28;20215;-72
2022/05/24 06:44:19;;;;;;;2.55;1.38;;;20.20;97.20;;;;;;1728424;28;20236;-71
2022/05/24 06:45:12;;;;;;;1.75;1.13;;;20.20;97.20;;;;;;1728401;28;20197;-72
2022/05/24 06:46:07;;;;;;;2.33;1.02;;;20.20;97.20;;;;;;1728389;28;20224;-72
2022/05/24 06:46:59;;;;;;;4.38;1.25;;;20.20;97.20;;;;;;1728455;28;20204;-71
2022/05/24 06:47:50;;;;;;;1.55;1.40;;;20.20;97.20;;;;;;1728400;28;20259;-71
2022/05/24 06:48:42;;;;;;;2.45;1.30;;;20.20;97.20;;;;;;1728417;28;20658;-72
2022/05/24 06:49:36;;;;;;;1.40;1.00;;;20.20;97.20;;;;;;1726187;28;20232;-71
2022/05/24 06:50:27;;;;;;;1.40;1.30;;;20.20;97.20;;;;;;1721215;28;20242;-71
2022/05/24 06:51:21;;;;;;;2.25;1.13;;;20.30;97.20;;;;;;1721665;28;20280;-72
2022/05/24 06:52:15;;;;;;;3.00;1.35;;;20.30;97.20;;;;;;1721602;28;20562;-71
2022/05/24 06:53:07;;;;;;;1.80;1.05;;;20.40;97.20;;;;;;1721521;28;20301;-72
2022/05/24 06:53:58;;;;;;;2.85;1.15;;;20.40;97.20;;;;;;1721655;28;20235;-72
2022/05/24 06:54:49;;;;;;;1.85;1.40;;;20.50;97.20;;;;;;1721617;28;20209;-72
2022/05/24 06:55:41;;;;;;;1.73;1.40;;;20.50;97.20;;;;;;1721653;28;20210;-72
2022/05/24 06:56:33;;;;;;;1.50;1.40;;;20.60;97.20;;;;;;1721445;28;20444;-72
2022/05/24 06:57:25;;;;;;;1.67;1.30;;;20.60;97.20;;;;;;1721477;28;20327;-72
2022/05/24 06:58:17;;;;;;;3.08;1.40;;;20.60;97.20;;;;;;1721612;28;20201;-72
2022/05/24 07:02:38;;;;;;;1.42;1.00;;;20.50;97.20;;;;;;1728376;28;20243;-72
2022/05/24 07:03:29;;;;;;;2.00;1.15;;;20.30;97.20;;;;;;1728206;28;20205;-71
2022/05/24 07:04:20;;;;;;;2.23;1.47;;;20.30;97.20;;;;;;1728292;28;20255;-71
2022/05/24 07:05:13;;;;;;;1.98;1.20;;;20.20;97.20;;;;;;1728317;28;20212;-71
2022/05/24 07:06:06;;;;;;;2.22;1.40;;;20.20;97.20;;;;;;1728228;28;20196;-72
2022/05/24 07:06:57;;;;;;;2.05;1.40;;;20.10;97.20;;;;;;1728286;28;20622;-72
2022/05/24 07:07:50;;;;;;;2.20;1.17;;;20.10;97.20;;;;;;1728219;28;20196;-72
2022/05/24 07:08:40;;;;;;;1.88;1.35;;;20.00;97.20;;;;;;1728256;28;20207;-72
2022/05/24 07:09:33;;;;;;;1.87;1.50;;;20.00;97.20;;;;;;1726776;28;20203;-72
2022/05/24 07:10:24;;;;;;;1.27;1.17;;;19.90;97.20;;;;;;1721119;28;20313;-72
2022/05/24 07:11:18;;;;;;;2.30;1.27;;;19.90;97.20;;;;;;1721469;28;20224;-72
2022/05/24 07:12:09;;;;;;;1.60;1.33;;;19.90;97.20;;;;;;1721398;28;20488;-71
2022/05/24 07:13:04;;;;;;;1.08;0.95;;;19.80;97.20;;;;;;1721487;28;20801;-72
2022/05/24 07:13:55;;;;;;;4.35;1.63;;;19.80;97.20;;;;;;1721448;28;20205;-72
2022/05/24 07:14:46;;;;;;;1.35;1.23;;;19.80;97.20;;;;;;1721501;28;20240;-72
2022/05/24 07:15:38;;;;;;;3.67;1.23;;;19.70;97.20;;;;;;1721479;28;20201;-71
2022/05/24 07:16:29;;;;;;;3.08;1.00;;;19.60;97.20;;;;;;1721433;28;20201;-72
2022/05/24 07:17:21;;;;;;;8.03;1.07;;;19.40;97.20;;;;;;1721329;28;20225;-72
2022/05/24 07:18:13;;;;;;;5.03;0.80;;;19.20;97.20;;;;;;1721492;28;20221;-71
2022/05/24 07:19:04;;;;;;;1.48;0.90;;;19.00;97.20;;;;;;1721427;28;20240;-72
2022/05/24 07:19:55;;;;;;;2.60;0.90;;;18.80;97.20;;;;;;1725311;28;20200;-71
2022/05/24 07:20:46;;;;;;;2.33;0.70;;;18.70;97.20;;;;;;1727903;28;20309;-71
2022/05/24 07:21:38;;;;;;;2.17;1.00;;;18.50;97.20;;;;;;1728056;28;20196;-70
2022/05/24 07:22:28;;;;;;;6.47;1.10;;;18.30;97.20;;;;;;1728004;28;20239;-72
2022/05/24 07:23:24;;;;;;;2.63;0.70;;;18.20;97.20;;;;;;1728217;28;20211;-71
2022/05/24 07:24:14;;;;;;;3.85;0.90;;;18.00;97.20;;;;;;1728216;28;20254;-72
2022/05/24 07:25:07;;;;;;;3.70;0.60;;;17.90;97.20;;;;;;1728072;28;20262;-71
2022/05/24 07:26:09;;;;;;;6.57;1.05;;;17.80;97.20;;;;;;1728112;28;20288;-71
2022/05/24 07:27:04;;;;;;;1.20;0.80;;;17.70;97.20;;;;;;1728521;28;20283;-71
2022/05/24 07:27:54;;;;;;;2.45;0.80;;;17.70;97.20;;;;;;1728349;28;20211;-71
2022/05/24 07:28:46;;;;;;;1.73;0.70;;;17.70;97.20;;;;;;1728123;28;20211;-71
2022/05/24 07:29:37;;;;;;;2.35;0.70;;;17.70;97.20;;;;;;1726432;28;20247;-71
2022/05/24 07:30:28;;;;;;;3.43;0.70;;;17.70;97.20;;;;;;1721925;28;20193;-71
2022/05/24 07:31:19;;;;;;;5.53;0.82;;;17.70;97.20;;;;;;1721311;28;20209;-70
2022/05/24 07:32:11;;;;;;;2.63;0.70;;;17.70;97.20;;;;;;1721252;28;20204;-71
2022/05/24 07:33:02;;;;;;;2.40;0.90;;;17.70;97.20;;;;;;1721300;28;20208;-71
2022/05/24 07:33:53;;;;;;;1.87;0.80;;;17.70;97.20;;;;;;1721367;28;20204;-71
2022/05/24 07:34:44;;;;;;;2.28;0.70;;;17.60;97.20;;;;;;1721316;28;20235;-71
2022/05/24 07:35:37;;;;;;;4.33;0.83;;;17.60;97.20;;;;;;1721372;28;20200;-71
2022/05/24 07:36:28;;;;;;;3.42;0.90;;;17.60;97.20;;;;;;1721234;28;20290;-71
2022/05/24 07:37:21;;;;;;;2.43;0.70;;;17.50;97.20;;;;;;1721278;28;20288;-72
2022/05/24 07:38:13;;;;;;;2.90;0.82;;;17.50;97.20;;;;;;1721283;28;20673;-71
2022/05/24 07:39:05;;;;;;;0.88;0.65;;;17.50;97.20;;;;;;1721333;28;20718;-71
2022/05/24 07:45:49;;;;;;;2.40;0.65;;;17.20;97.20;;;;;;1727942;28;20215;-71
2022/05/24 07:46:41;;;;;;;1.20;0.80;;;17.20;97.20;;;;;;1728011;28;20208;-71
2022/05/24 07:47:32;;;;;;;2.50;0.75;;;17.20;97.20;;;;;;1728060;28;20232;-70
2022/05/24 07:48:24;;;;;;;1.53;0.63;;;17.30;97.20;;;;;;1728038;28;20200;-71
2022/05/24 07:49:14;;;;;;;1.10;0.70;;;17.30;97.20;;;;;;1727978;28;20236;-71
2022/05/24 07:50:07;;;;;;;7.47;0.90;;;17.40;97.20;;;;;;1727070;28;20193;-71
2022/05/24 07:50:59;;;;;;;2.78;0.65;;;17.50;97.20;;;;;;1727675;28;20274;-70
2022/05/24 07:51:49;;;;;;;3.08;0.65;;;17.60;97.20;;;;;;1727921;28;20678;-71
2022/05/24 07:52:41;;;;;;;1.70;0.70;;;17.60;97.20;;;;;;1727980;28;20574;-71
2022/05/24 07:53:33;;;;;;;2.65;0.60;;;17.70;97.20;;;;;;1727973;28;20204;-70
2022/05/24 07:54:26;;;;;;;1.90;0.60;;;17.70;97.20;;;;;;1727954;28;20203;-71
2022/05/24 07:55:17;;;;;;;1.80;0.70;;;17.90;97.20;;;;;;1727875;28;20204;-71
2022/05/24 07:56:09;;;;;;;1.00;0.67;;;18.00;97.20;;;;;;1727864;28;20283;-71
2022/05/24 07:57:00;;;;;;;2.35;1.13;;;18.10;97.20;;;;;;1727932;28;20451;-71
2022/05/24 07:57:52;;;;;;;1.70;0.60;;;18.30;97.20;;;;;;1727937;28;20693;-71
2022/05/24 07:58:44;;;;;;;1.00;0.77;;;18.40;97.20;;;;;;1727894;28;20196;-71
2022/05/24 07:59:35;;;;;;;1.08;0.60;;;18.50;97.20;;;;;;1727202;28;20288;-71
2022/05/24 08:00:27;;;;;;;1.80;0.80;;;18.50;97.20;;;;;;1720681;28;20197;-71
2022/05/24 08:01:19;;;;;;;1.52;0.70;;;18.50;97.20;;;;;;1721154;28;20205;-72
2022/05/24 08:02:10;;;;;;;1.33;0.60;;;18.50;97.20;;;;;;1721136;28;20574;-71
2022/05/24 08:03:02;;;;;;;0.87;0.70;;;18.50;97.20;;;;;;1721090;28;20197;-71
2022/05/24 08:03:53;;;;;;;1.30;0.60;;;18.50;97.20;;;;;;1721294;28;20201;-71
2022/05/24 08:04:45;;;;;;;1.30;0.60;;;18.50;97.20;;;;;;1721216;28;20259;-71
2022/05/24 08:05:37;;;;;;;2.00;0.60;;;18.50;97.20;;;;;;1721246;28;20265;-71
2022/05/24 08:06:28;;;;;;;1.95;0.63;;;18.50;97.20;;;;;;1721063;28;20296;-71
2022/05/24 08:07:20;;;;;;;3.67;0.87;;;18.50;97.20;;;;;;1721121;28;20205;-71
2022/05/24 08:08:11;;;;;;;0.80;0.60;;;18.50;97.20;;;;;;1721107;28;20208;-71
2022/05/24 08:09:02;;;;;;;6.00;0.60;;;18.60;97.20;;;;;;1721070;28;20201;-71
2022/05/24 08:09:54;;;;;;;1.00;0.63;;;18.60;97.20;;;;;;1723502;28;20221;-71
2022/05/24 08:10:46;;;;;;;0.95;0.60;;;18.70;97.20;;;;;;1727508;28;20266;-71
2022/05/24 08:11:37;;;;;;;1.10;0.77;;;18.80;97.20;;;;;;1727819;28;20207;-71
2022/05/24 08:12:29;;;;;;;1.50;0.60;;;18.90;97.20;;;;;;1727850;28;20686;-71
2022/05/24 08:13:20;;;;;;;1.60;0.50;;;19.00;97.20;;;;;;1727824;28;20459;-71
2022/05/24 08:14:11;;;;;;;1.23;0.50;;;19.10;97.20;;;;;;1727795;28;20228;-71
2022/05/24 08:15:03;;;;;;;0.80;0.50;;;19.20;97.20;;;;;;1727772;28;20256;-71
2022/05/24 08:15:56;;;;;;;1.10;0.68;;;19.30;97.20;;;;;;1727845;28;20207;-71
2022/05/24 08:16:47;;;;;;;1.00;0.70;;;19.40;97.20;;;;;;1727790;28;20250;-72
2022/05/24 08:17:38;;;;;;;0.90;0.60;;;19.50;97.20;;;;;;1727771;28;20259;-71
2022/05/24 08:18:30;;;;;;;1.48;0.70;;;19.60;97.20;;;;;;1727752;28;20236;-71
2022/05/24 08:19:22;;;;;;;2.35;0.70;;;19.60;97.20;;;;;;1727809;28;20196;-72
2022/05/24 08:20:13;;;;;;;2.40;0.70;;;19.80;97.20;;;;;;1722194;28;20201;-71
2022/05/24 08:21:05;;;;;;;0.85;0.60;;;19.90;97.20;;;;;;1720981;28;20205;-71
2022/05/24 08:21:56;;;;;;;1.08;0.70;;;20.10;97.20;;;;;;1720932;28;20240;-71
2022/05/24 08:22:48;;;;;;;1.20;0.80;;;20.20;97.20;;;;;;1720934;28;20200;-72
2022/05/24 08:23:40;;;;;;;1.00;0.80;;;20.30;97.20;;;;;;1721068;28;20236;-71
2022/05/24 08:24:30;;;;;;;1.30;0.60;;;20.40;97.20;;;;;;1721023;28;20201;-72
2022/05/24 08:25:24;;;;;;;1.80;0.70;;;20.60;97.20;;;;;;1720940;28;20211;-71
2022/05/24 08:26:16;;;;;;;1.10;0.60;;;20.60;97.20;;;;;;1720748;28;20205;-71
2022/05/24 08:27:11;;;;;;;1.10;0.60;;;20.60;97.20;;;;;;1720968;28;20223;-72
2022/05/24 08:28:03;;;;;;;1.90;0.70;;;20.60;97.20;;;;;;1721013;28;20193;-71
2022/05/24 08:28:54;;;;;;;2.22;0.70;;;20.60;97.20;;;;;;1721017;28;20232;-71
2022/05/24 08:29:45;;;;;;;4.30;0.60;;;20.60;97.20;;;;;;1721149;28;20208;-71
2022/05/24 08:30:39;;;;;;;1.00;0.60;;;20.60;97.20;;;;;;1727423;28;20220;-71
2022/05/24 08:31:29;;;;;;;1.02;0.65;;;20.70;97.20;;;;;;1727704;28;20239;-71
2022/05/24 08:32:21;;;;;;;2.50;0.70;;;20.70;97.20;;;;;;1727795;28;20200;-71
2022/05/24 08:33:14;;;;;;;1.45;0.68;;;20.80;97.20;;;;;;1727793;28;20694;-71
2022/05/24 08:34:06;;;;;;;1.20;0.60;;;20.80;97.20;;;;;;1727607;28;20211;-72
2022/05/24 08:34:56;;;;;;;0.80;0.60;;;20.80;97.20;;;;;;1727684;28;20197;-71
2022/05/24 08:35:48;;;;;;;1.07;0.60;;;20.80;97.20;;;;;;1727582;28;20195;-71
2022/05/24 08:36:39;;;;;;;1.10;0.88;;;20.90;97.20;;;;;;1727693;28;20208;-71
2022/05/24 08:37:31;;;;;;;1.80;0.60;;;20.90;97.20;;;;;;1727692;28;20197;-71
2022/05/24 08:38:23;;;;;;;0.75;0.55;;;21.00;97.20;;;;;;1727568;28;20228;-72
2022/05/24 08:39:14;;;;;;;0.70;0.47;;;21.00;97.20;;;;;;1727632;28;20204;-72
2022/05/24 08:40:07;;;;;;;1.27;0.60;;;21.10;97.20;;;;;;1724572;28;20201;-72
2022/05/24 08:41:03;;;;;;;2.15;0.82;;;21.10;97.20;;;;;;1720609;28;20752;-71
2022/05/24 08:42:03;;;;;;;3.50;0.70;;;21.20;97.20;;;;;;1720950;28;20590;-71
2022/05/24 08:43:12;;;;;;;2.25;0.63;;;21.30;97.20;;;;;;1721030;28;20244;-71
2022/05/24 08:49:06;;;;;;;2.05;0.90;;;21.10;97.20;;;;;;1720928;28;20243;-71
2022/05/24 08:49:57;;;;;;;0.95;0.85;;;21.00;97.20;;;;;;1722140;28;20209;-71
2022/05/24 08:50:52;;;;;;;1.75;0.75;;;21.00;97.20;;;;;;1727187;28;20224;-72
2022/05/24 08:51:48;;;;;;;0.95;0.60;;;21.00;97.20;;;;;;1727282;28;20228;-71
2022/05/24 08:52:45;;;;;;;1.00;0.75;;;20.90;97.20;;;;;;1727711;28;20204;-71
2022/05/24 08:53:42;;;;;;;0.90;0.60;;;20.80;97.20;;;;;;1727599;28;20205;-71
2022/05/24 08:54:37;;;;;;;2.30;0.57;;;20.70;97.20;;;;;;1727591;28;20288;-71
2022/05/24 08:55:29;;;;;;;2.83;0.60;;;20.60;97.20;;;;;;1727557;28;20288;-71
2022/05/24 08:56:26;;;;;;;1.65;0.57;;;20.50;97.20;;;;;;1727528;28;20231;-71
2022/05/24 08:57:24;;;;;;;1.50;0.60;;;20.40;97.20;;;;;;1727632;28;20209;-72
2022/05/24 08:58:29;;;;;;;3.05;0.70;;;20.20;97.20;;;;;;1727526;28;20674;-71
2022/05/24 08:59:28;;;;;;;1.70;0.70;;;20.10;97.20;;;;;;1727632;28;20232;-70
2022/05/24 09:00:24;;;;;;;1.40;0.60;;;20.10;97.20;;;;;;1722399;28;20204;-71
2022/05/24 09:01:19;;;;;;;1.00;0.65;;;20.00;97.20;;;;;;1720864;28;20201;-71
2022/05/24 09:02:10;;;;;;;1.02;0.70;;;20.00;97.20;;;;;;1720746;28;20258;-72
2022/05/24 09:03:04;;;;;;;2.40;0.60;;;20.00;97.20;;;;;;1720838;28;20205;-72
2022/05/24 09:03:55;;;;;;;0.90;0.70;;;20.00;97.20;;;;;;1720710;28;20451;-71
2022/05/24 09:04:47;;;;;;;0.80;0.60;;;20.00;97.20;;;;;;1720801;28;20198;-72
2022/05/24 09:05:41;;;;;;;2.67;0.60;;;20.10;97.20;;;;;;1720799;28;20586;-71
2022/05/24 09:06:38;;;;;;;1.25;0.63;;;20.20;97.20;;;;;;1720701;28;20235;-71
2022/05/24 09:07:38;;;;;;;3.17;0.60;;;20.30;97.20;;;;;;1720786;28;20209;-72
2022/05/24 09:08:32;;;;;;;0.70;0.50;;;20.40;97.20;;;;;;1720693;28;20247;-71
2022/05/24 09:09:46;;;;;;;0.80;0.50;;;20.50;97.20;;;;;;1720686;28;20201;-71
2022/05/24 09:10:44;;;;;;;1.00;0.50;;;20.60;97.20;;;;;;1720437;28;20252;-71
2022/05/24 09:11:50;;;;;;;0.80;0.57;;;20.70;97.20;;;;;;1720757;28;20255;-71
2022/05/24 09:13:03;;;;;;;1.15;0.60;;;20.90;97.20;;;;;;1720713;28;20213;-71
2022/05/24 09:14:11;;;;;;;2.20;0.70;;;21.10;97.20;;;;;;1720851;28;20225;-72
2022/05/24 09:15:12;;;;;;;0.85;0.50;;;21.30;97.20;;;;;;1720850;28;20205;-72
2022/05/24 09:16:10;;;;;;;1.70;0.68;;;21.50;97.20;;;;;;1720854;28;20249;-72
2022/05/24 09:17:11;;;;;;;0.90;0.68;;;21.60;97.20;;;;;;1720823;28;20225;-72
2022/05/24 09:18:20;;;;;;;0.80;0.60;;;21.70;97.20;;;;;;1720760;28;20248;-72
2022/05/24 09:19:17;;;;;;;0.80;0.70;;;21.90;97.20;;;;;;1720818;28;20213;-71
2022/05/24 09:20:14;;;;;;;0.80;0.60;;;22.10;97.20;;;;;;1721692;28;20197;-72
2022/05/24 09:21:05;;;;;;;1.60;0.70;;;22.20;97.20;;;;;;1720633;28;20719;-71
2022/05/24 09:21:57;;;;;;;1.10;0.60;;;22.40;97.20;;;;;;1720700;28;20576;-71
2022/05/24 09:22:47;;;;;;;1.42;0.88;;;22.40;97.20;;;;;;1720646;28;21124;-71
2022/05/24 09:23:45;;;;;;;1.67;0.60;;;22.50;97.20;;;;;;1720728;28;20206;-72
2022/05/24 09:24:42;;;;;;;1.17;0.60;;;22.50;97.20;;;;;;1720740;28;20280;-72
2022/05/24 09:25:34;;;;;;;1.75;0.88;;;22.40;97.20;;;;;;1720809;28;20244;-71
2022/05/24 09:26:25;;;;;;;1.02;0.73;;;22.40;97.20;;;;;;1720666;28;20575;-72
2022/05/24 09:27:20;;;;;;;1.57;0.60;;;22.40;97.20;;;;;;1720585;28;20288;-71
2022/05/24 09:28:11;;;;;;;1.48;0.70;;;22.40;97.20;;;;;;1720637;28;20236;-72
2022/05/24 09:29:11;;;;;;;0.80;0.60;;;22.40;97.20;;;;;;1720746;28;20197;-71
2022/05/24 09:30:05;;;;;;;1.13;0.60;;;22.40;97.20;;;;;;1722090;28;20692;-72
2022/05/24 09:30:59;;;;;;;1.17;0.60;;;22.40;97.20;;;;;;1726811;28;20211;-72
2022/05/24 09:31:50;;;;;;;1.25;0.60;;;22.50;97.20;;;;;;1727340;28;20694;-71
2022/05/24 09:32:44;;;;;;;0.80;0.70;;;22.50;97.20;;;;;;1727428;28;20591;-72
2022/05/24 09:33:40;;;;;;;1.98;0.70;;;22.60;97.20;;;;;;1727387;28;20204;-71
2022/05/24 09:34:34;;;;;;;0.90;0.60;;;22.80;97.20;;;;;;1727493;28;20208;-72
2022/05/24 09:35:26;;;;;;;1.65;0.60;;;22.80;97.20;;;;;;1727317;28;20212;-72
2022/05/24 09:36:32;;;;;;;1.10;1.00;;;22.80;97.20;;;;;;1727419;28;20651;-72
2022/05/24 09:37:26;;;;;;;1.05;0.65;;;22.70;97.20;;;;;;1727433;28;20587;-72
2022/05/24 09:38:22;;;;;;;1.58;0.60;;;22.70;97.20;;;;;;1728329;28;20228;-71
2022/05/24 09:39:23;;;;;;;0.80;0.60;;;22.60;97.20;;;;;;1728835;28;20295;-72
2022/05/24 09:40:20;;;;;;;0.80;0.60;;;22.50;97.20;;;;;;1725975;28;20279;-72
2022/05/24 09:41:15;;;;;;;1.15;0.60;;;22.50;97.20;;;;;;1722077;28;20205;-72
2022/05/24 09:42:12;;;;;;;1.48;0.85;;;22.60;97.20;;;;;;1722035;28;20212;-72
2022/05/24 09:43:19;;;;;;;1.42;0.60;;;22.80;97.20;;;;;;1722165;28;20208;-72
2022/05/24 09:44:15;;;;;;;3.80;3.50;;;22.90;97.20;;;;;;1722031;28;20670;-72
2022/05/24 09:45:09;;;;;;;1.27;0.85;;;23.00;97.20;;;;;;1722085;28;20864;-72
2022/05/24 09:46:05;;;;;;;0.90;0.73;;;23.10;97.20;;;;;;1721999;28;20211;-71
2022/05/24 09:46:56;;;;;;;1.10;0.80;;;23.20;97.20;;;;;;1724148;28;20209;-72
2022/05/24 09:47:55;;;;;;;1.00;0.90;;;23.30;97.20;;;;;;1728745;28;20204;-72
2022/05/24 09:48:54;;;;;;;1.23;0.80;;;23.40;97.20;;;;;;1728828;28;20199;-72
2022/05/24 09:49:46;;;;;;;1.23;0.80;;;23.50;97.20;;;;;;1728725;28;20196;-72
2022/05/24 09:50:39;;;;;;;1.20;1.10;;;23.50;97.20;;;;;;1728524;28;20252;-72
2022/05/24 09:51:38;;;;;;;1.45;1.00;;;23.50;97.20;;;;;;1728740;28;20208;-72
2022/05/24 09:52:29;;;;;;;2.80;0.70;;;23.50;97.20;;;;;;1728694;28;20338;-72
2022/05/24 09:53:23;;;;;;;1.60;0.80;;;23.50;97.20;;;;;;1728767;28;20262;-71
2022/05/24 09:54:17;;;;;;;1.35;1.23;;;23.50;97.20;;;;;;1728828;28;20211;-72
2022/05/24 09:55:10;;;;;;;1.30;0.70;;;23.40;97.20;;;;;;1728775;28;20671;-72
2022/05/24 09:56:05;;;;;;;0.90;0.60;;;23.30;97.20;;;;;;1728693;28;20208;-72
2022/05/24 09:57:03;;;;;;;1.38;0.70;;;23.20;97.20;;;;;;1726294;28;20200;-71
2022/05/24 09:57:55;;;;;;;1.75;0.90;;;23.10;97.20;;;;;;1721961;28;20259;-71
2022/05/24 09:58:54;;;;;;;1.58;0.68;;;23.10;97.20;;;;;;1721834;28;20286;-72
2022/05/24 09:59:59;;;;;;;1.15;0.88;;;23.10;97.20;;;;;;1721978;28;20657;-72
2022/05/24 10:00:52;;;;;;;1.20;0.80;;;23.10;97.20;;;;;;1721550;28;20665;-72